sensor_id;sensor_type;location;lat;lon;timestamp;P1;durP1;ratioP1;P2;durP2;ratioP2
45368;SDS011;51342;55.250;37.668;2023-03-29T00:02:20;4.50;;;3.50;;
45368;SDS011;51342;55.250;37.668;2023-03-29T00:04:51;4.93;;;3.87;;
45368;SDS011;51342;55.250;37.668;2023-03-29T00:07:23;4.70;;;3.77;;
45368;SDS011;51342;55.250;37.668;2023-03-29T00:09:55;6.77;;;3.90;;
45368;SDS011;51342;55.250;37.668;2023-03-29T00:12:27;5.77;;;4.03;;
45368;SDS011;51342;55.250;37.668;2023-03-29T00:14:59;5.40;;;3.90;;
45368;SDS011;51342;55.250;37.668;2023-03-29T00:17:30;5.17;;;3.60;;
45368;SDS011;51342;55.250;37.668;2023-03-29T00:20:02;6.27;;;3.53;;
45368;SDS011;51342;55.250;37.668;2023-03-29T00:22:37;4.87;;;3.30;;
45368;SDS011;51342;55.250;37.668;2023-03-29T00:25:12;4.90;;;3.47;;
45368;SDS011;51342;55.250;37.668;2023-03-29T00:27:44;4.83;;;3.50;;
45368;SDS011;51342;55.250;37.668;2023-03-29T00:30:15;4.97;;;3.73;;
45368;SDS011;51342;55.250;37.668;2023-03-29T00:32:47;5.47;;;3.43;;
45368;SDS011;51342;55.250;37.668;2023-03-29T00:35:18;4.50;;;3.27;;
45368;SDS011;51342;55.250;37.668;2023-03-29T00:37:50;5.87;;;3.40;;
45368;SDS011;51342;55.250;37.668;2023-03-29T00:40:22;3.83;;;3.23;;
45368;SDS011;51342;55.250;37.668;2023-03-29T00:42:54;3.83;;;3.00;;
45368;SDS011;51342;55.250;37.668;2023-03-29T00:45:27;5.03;;;3.67;;
45368;SDS011;51342;55.250;37.668;2023-03-29T00:48:01;3.90;;;3.50;;
45368;SDS011;51342;55.250;37.668;2023-03-29T00:50:36;5.50;;;3.50;;
45368;SDS011;51342;55.250;37.668;2023-03-29T00:56:07;5.18;;;3.70;;
45368;SDS011;51342;55.250;37.668;2023-03-29T00:58:48;5.30;;;3.60;;
45368;SDS011;51342;55.250;37.668;2023-03-29T01:01:28;6.53;;;3.53;;
45368;SDS011;51342;55.250;37.668;2023-03-29T01:04:15;5.53;;;3.40;;
45368;SDS011;51342;55.250;37.668;2023-03-29T01:06:55;4.63;;;2.80;;
45368;SDS011;51342;55.250;37.668;2023-03-29T01:09:32;5.13;;;3.60;;
45368;SDS011;51342;55.250;37.668;2023-03-29T01:12:10;5.13;;;3.90;;
45368;SDS011;51342;55.250;37.668;2023-03-29T01:14:49;4.77;;;3.77;;
45368;SDS011;51342;55.250;37.668;2023-03-29T01:17:32;4.47;;;3.40;;
45368;SDS011;51342;55.250;37.668;2023-03-29T01:31:41;4.97;;;3.67;;
45368;SDS011;51342;55.250;37.668;2023-03-29T01:34:18;4.30;;;3.33;;
45368;SDS011;51342;55.250;37.668;2023-03-29T01:36:57;6.53;;;3.50;;
45368;SDS011;51342;55.250;37.668;2023-03-29T01:39:34;5.23;;;3.43;;
45368;SDS011;51342;55.250;37.668;2023-03-29T01:44:46;4.93;;;3.53;;
45368;SDS011;51342;55.250;37.668;2023-03-29T01:50:18;4.60;;;3.80;;
45368;SDS011;51342;55.250;37.668;2023-03-29T01:53:03;4.40;;;3.30;;
45368;SDS011;51342;55.250;37.668;2023-03-29T01:55:39;5.00;;;3.30;;
45368;SDS011;51342;55.250;37.668;2023-03-29T01:58:15;6.67;;;4.10;;
45368;SDS011;51342;55.250;37.668;2023-03-29T02:00:49;4.93;;;3.90;;
45368;SDS011;51342;55.250;37.668;2023-03-29T02:03:25;5.73;;;3.57;;
45368;SDS011;51342;55.250;37.668;2023-03-29T02:06:00;5.17;;;4.00;;
45368;SDS011;51342;55.250;37.668;2023-03-29T02:08:34;4.80;;;3.50;;
45368;SDS011;51342;55.250;37.668;2023-03-29T02:11:06;5.77;;;3.60;;
45368;SDS011;51342;55.250;37.668;2023-03-29T02:13:38;5.47;;;3.87;;
45368;SDS011;51342;55.250;37.668;2023-03-29T02:16:12;5.50;;;3.60;;
45368;SDS011;51342;55.250;37.668;2023-03-29T02:18:44;5.47;;;3.80;;
45368;SDS011;51342;55.250;37.668;2023-03-29T02:21:23;4.20;;;3.27;;
45368;SDS011;51342;55.250;37.668;2023-03-29T02:24:06;6.10;;;3.63;;
45368;SDS011;51342;55.250;37.668;2023-03-29T02:26:42;4.90;;;3.57;;
45368;SDS011;51342;55.250;37.668;2023-03-29T02:29:14;4.60;;;3.27;;
45368;SDS011;51342;55.250;37.668;2023-03-29T02:31:50;5.40;;;3.40;;
45368;SDS011;51342;55.250;37.668;2023-03-29T02:34:31;4.40;;;3.53;;
45368;SDS011;51342;55.250;37.668;2023-03-29T02:37:11;4.80;;;3.47;;
45368;SDS011;51342;55.250;37.668;2023-03-29T02:39:49;4.93;;;3.40;;
45368;SDS011;51342;55.250;37.668;2023-03-29T02:42:22;4.63;;;3.10;;
45368;SDS011;51342;55.250;37.668;2023-03-29T02:44:56;4.63;;;3.67;;
45368;SDS011;51342;55.250;37.668;2023-03-29T02:47:31;5.10;;;3.60;;
45368;SDS011;51342;55.250;37.668;2023-03-29T02:50:07;5.00;;;3.15;;
45368;SDS011;51342;55.250;37.668;2023-03-29T02:52:40;4.93;;;3.23;;
45368;SDS011;51342;55.250;37.668;2023-03-29T02:55:16;3.97;;;3.38;;
45368;SDS011;51342;55.250;37.668;2023-03-29T02:57:48;5.17;;;3.60;;
45368;SDS011;51342;55.250;37.668;2023-03-29T03:00:20;5.03;;;3.50;;
45368;SDS011;51342;55.250;37.668;2023-03-29T03:02:52;4.33;;;3.40;;
45368;SDS011;51342;55.250;37.668;2023-03-29T03:05:25;4.73;;;3.30;;
45368;SDS011;51342;55.250;37.668;2023-03-29T03:07:56;5.10;;;3.67;;
45368;SDS011;51342;55.250;37.668;2023-03-29T03:10:28;5.90;;;3.40;;
45368;SDS011;51342;55.250;37.668;2023-03-29T03:13:01;4.70;;;3.53;;
45368;SDS011;51342;55.250;37.668;2023-03-29T03:15:34;4.60;;;3.40;;
45368;SDS011;51342;55.250;37.668;2023-03-29T03:18:06;6.10;;;3.50;;
45368;SDS011;51342;55.250;37.668;2023-03-29T03:20:39;5.00;;;3.63;;
45368;SDS011;51342;55.250;37.668;2023-03-29T03:23:10;4.23;;;3.50;;
45368;SDS011;51342;55.250;37.668;2023-03-29T03:25:43;4.40;;;3.37;;
45368;SDS011;51342;55.250;37.668;2023-03-29T03:28:15;6.43;;;3.33;;
45368;SDS011;51342;55.250;37.668;2023-03-29T03:30:47;6.63;;;3.90;;
45368;SDS011;51342;55.250;37.668;2023-03-29T03:33:42;5.47;;;3.73;;
45368;SDS011;51342;55.250;37.668;2023-03-29T03:36:13;5.77;;;3.87;;
45368;SDS011;51342;55.250;37.668;2023-03-29T03:38:47;5.30;;;3.60;;
45368;SDS011;51342;55.250;37.668;2023-03-29T03:41:18;5.00;;;3.77;;
45368;SDS011;51342;55.250;37.668;2023-03-29T03:43:50;5.50;;;3.40;;
45368;SDS011;51342;55.250;37.668;2023-03-29T03:46:21;4.70;;;3.60;;
45368;SDS011;51342;55.250;37.668;2023-03-29T03:48:54;5.63;;;3.53;;
45368;SDS011;51342;55.250;37.668;2023-03-29T03:51:32;5.73;;;3.90;;
45368;SDS011;51342;55.250;37.668;2023-03-29T03:54:03;5.77;;;3.70;;
45368;SDS011;51342;55.250;37.668;2023-03-29T03:56:38;4.37;;;3.40;;
45368;SDS011;51342;55.250;37.668;2023-03-29T03:59:28;6.37;;;3.80;;
45368;SDS011;51342;55.250;37.668;2023-03-29T04:02:07;6.00;;;3.60;;
45368;SDS011;51342;55.250;37.668;2023-03-29T04:04:41;5.70;;;3.30;;
45368;SDS011;51342;55.250;37.668;2023-03-29T04:07:19;4.23;;;3.30;;
45368;SDS011;51342;55.250;37.668;2023-03-29T04:10:11;5.33;;;3.80;;
45368;SDS011;51342;55.250;37.668;2023-03-29T04:12:54;4.37;;;3.23;;
45368;SDS011;51342;55.250;37.668;2023-03-29T04:15:27;5.03;;;3.20;;
45368;SDS011;51342;55.250;37.668;2023-03-29T04:18:08;6.93;;;3.30;;
45368;SDS011;51342;55.250;37.668;2023-03-29T04:20:45;6.13;;;3.70;;
45368;SDS011;51342;55.250;37.668;2023-03-29T04:23:21;4.70;;;3.40;;
45368;SDS011;51342;55.250;37.668;2023-03-29T04:25:53;4.03;;;3.37;;
45368;SDS011;51342;55.250;37.668;2023-03-29T04:28:47;6.43;;;3.17;;
45368;SDS011;51342;55.250;37.668;2023-03-29T04:31:37;5.10;;;3.17;;
45368;SDS011;51342;55.250;37.668;2023-03-29T04:34:26;4.37;;;3.67;;
45368;SDS011;51342;55.250;37.668;2023-03-29T04:36:59;3.97;;;2.83;;
45368;SDS011;51342;55.250;37.668;2023-03-29T04:39:31;4.90;;;3.50;;
45368;SDS011;51342;55.250;37.668;2023-03-29T04:42:07;5.07;;;3.60;;
45368;SDS011;51342;55.250;37.668;2023-03-29T04:44:39;5.83;;;3.40;;
45368;SDS011;51342;55.250;37.668;2023-03-29T04:47:13;5.57;;;3.30;;
45368;SDS011;51342;55.250;37.668;2023-03-29T04:50:11;4.67;;;3.10;;
45368;SDS011;51342;55.250;37.668;2023-03-29T04:52:47;5.40;;;3.40;;
45368;SDS011;51342;55.250;37.668;2023-03-29T04:55:20;4.07;;;3.03;;
45368;SDS011;51342;55.250;37.668;2023-03-29T04:58:00;7.17;;;4.90;;
45368;SDS011;51342;55.250;37.668;2023-03-29T05:00:39;4.97;;;3.10;;
45368;SDS011;51342;55.250;37.668;2023-03-29T05:03:17;4.57;;;3.28;;
45368;SDS011;51342;55.250;37.668;2023-03-29T05:06:02;4.40;;;3.20;;
45368;SDS011;51342;55.250;37.668;2023-03-29T05:08:37;5.43;;;3.50;;
45368;SDS011;51342;55.250;37.668;2023-03-29T05:11:29;7.00;;;3.50;;
45368;SDS011;51342;55.250;37.668;2023-03-29T05:14:01;6.10;;;3.13;;
45368;SDS011;51342;55.250;37.668;2023-03-29T05:16:38;5.00;;;3.27;;
45368;SDS011;51342;55.250;37.668;2023-03-29T05:19:13;4.77;;;3.20;;
45368;SDS011;51342;55.250;37.668;2023-03-29T05:21:49;6.20;;;3.33;;
45368;SDS011;51342;55.250;37.668;2023-03-29T05:24:24;4.70;;;2.80;;
45368;SDS011;51342;55.250;37.668;2023-03-29T05:27:05;5.03;;;3.00;;
45368;SDS011;51342;55.250;37.668;2023-03-29T05:29:39;5.00;;;3.30;;
45368;SDS011;51342;55.250;37.668;2023-03-29T05:32:30;4.30;;;3.13;;
45368;SDS011;51342;55.250;37.668;2023-03-29T05:35:01;4.23;;;2.97;;
45368;SDS011;51342;55.250;37.668;2023-03-29T05:37:33;5.30;;;3.07;;
45368;SDS011;51342;55.250;37.668;2023-03-29T05:40:06;4.70;;;2.83;;
45368;SDS011;51342;55.250;37.668;2023-03-29T05:42:56;4.63;;;2.63;;
45368;SDS011;51342;55.250;37.668;2023-03-29T05:45:31;3.80;;;2.93;;
45368;SDS011;51342;55.250;37.668;2023-03-29T05:48:04;4.13;;;2.70;;
45368;SDS011;51342;55.250;37.668;2023-03-29T05:50:36;3.67;;;2.83;;
45368;SDS011;51342;55.250;37.668;2023-03-29T05:53:09;5.13;;;3.17;;
45368;SDS011;51342;55.250;37.668;2023-03-29T05:55:41;3.40;;;2.63;;
45368;SDS011;51342;55.250;37.668;2023-03-29T05:58:16;3.87;;;2.80;;
45368;SDS011;51342;55.250;37.668;2023-03-29T06:00:51;4.63;;;2.87;;
45368;SDS011;51342;55.250;37.668;2023-03-29T06:03:40;4.40;;;2.70;;
45368;SDS011;51342;55.250;37.668;2023-03-29T06:06:12;4.97;;;3.00;;
45368;SDS011;51342;55.250;37.668;2023-03-29T06:08:46;4.23;;;3.00;;
45368;SDS011;51342;55.250;37.668;2023-03-29T06:11:24;4.47;;;3.30;;
45368;SDS011;51342;55.250;37.668;2023-03-29T06:14:24;5.33;;;3.10;;
45368;SDS011;51342;55.250;37.668;2023-03-29T06:17:05;4.83;;;3.17;;
45368;SDS011;51342;55.250;37.668;2023-03-29T06:19:36;3.87;;;2.93;;
45368;SDS011;51342;55.250;37.668;2023-03-29T06:22:08;5.83;;;3.23;;
45368;SDS011;51342;55.250;37.668;2023-03-29T06:24:39;4.70;;;3.00;;
45368;SDS011;51342;55.250;37.668;2023-03-29T06:27:19;4.10;;;3.17;;
45368;SDS011;51342;55.250;37.668;2023-03-29T06:29:50;4.70;;;3.43;;
45368;SDS011;51342;55.250;37.668;2023-03-29T06:32:22;4.93;;;3.67;;
45368;SDS011;51342;55.250;37.668;2023-03-29T06:35:08;5.57;;;3.20;;
45368;SDS011;51342;55.250;37.668;2023-03-29T06:37:43;3.67;;;2.80;;
45368;SDS011;51342;55.250;37.668;2023-03-29T06:40:24;5.33;;;3.20;;
45368;SDS011;51342;55.250;37.668;2023-03-29T06:42:58;4.97;;;3.27;;
45368;SDS011;51342;55.250;37.668;2023-03-29T06:45:34;4.70;;;3.10;;
45368;SDS011;51342;55.250;37.668;2023-03-29T06:48:10;4.50;;;3.50;;
45368;SDS011;51342;55.250;37.668;2023-03-29T06:50:42;5.73;;;3.50;;
45368;SDS011;51342;55.250;37.668;2023-03-29T06:53:20;3.97;;;3.30;;
45368;SDS011;51342;55.250;37.668;2023-03-29T06:55:59;4.73;;;3.60;;
45368;SDS011;51342;55.250;37.668;2023-03-29T06:58:57;5.03;;;3.67;;
45368;SDS011;51342;55.250;37.668;2023-03-29T07:01:41;6.00;;;3.47;;
45368;SDS011;51342;55.250;37.668;2023-03-29T07:04:25;4.53;;;3.23;;
45368;SDS011;51342;55.250;37.668;2023-03-29T07:07:12;4.07;;;3.25;;
45368;SDS011;51342;55.250;37.668;2023-03-29T07:09:52;3.60;;;3.10;;
45368;SDS011;51342;55.250;37.668;2023-03-29T07:12:27;7.47;;;3.30;;
45368;SDS011;51342;55.250;37.668;2023-03-29T07:15:03;4.57;;;3.30;;
45368;SDS011;51342;55.250;37.668;2023-03-29T07:17:53;5.03;;;3.50;;
45368;SDS011;51342;55.250;37.668;2023-03-29T07:20:24;6.13;;;3.60;;
45368;SDS011;51342;55.250;37.668;2023-03-29T07:23:09;4.23;;;3.33;;
45368;SDS011;51342;55.250;37.668;2023-03-29T07:25:41;6.03;;;3.53;;
45368;SDS011;51342;55.250;37.668;2023-03-29T07:28:12;6.37;;;3.60;;
45368;SDS011;51342;55.250;37.668;2023-03-29T07:30:44;5.23;;;3.73;;
45368;SDS011;51342;55.250;37.668;2023-03-29T07:33:20;6.63;;;3.90;;
45368;SDS011;51342;55.250;37.668;2023-03-29T07:36:10;5.10;;;3.50;;
45368;SDS011;51342;55.250;37.668;2023-03-29T07:38:42;5.90;;;3.93;;
45368;SDS011;51342;55.250;37.668;2023-03-29T07:41:18;5.63;;;3.70;;
45368;SDS011;51342;55.250;37.668;2023-03-29T07:44:04;4.93;;;3.60;;
45368;SDS011;51342;55.250;37.668;2023-03-29T07:46:39;5.87;;;3.77;;
45368;SDS011;51342;55.250;37.668;2023-03-29T07:49:12;7.03;;;3.60;;
45368;SDS011;51342;55.250;37.668;2023-03-29T07:51:44;4.90;;;4.00;;
45368;SDS011;51342;55.250;37.668;2023-03-29T07:54:17;5.57;;;3.63;;
45368;SDS011;51342;55.250;37.668;2023-03-29T07:56:57;4.70;;;3.53;;
45368;SDS011;51342;55.250;37.668;2023-03-29T07:59:43;6.07;;;3.70;;
45368;SDS011;51342;55.250;37.668;2023-03-29T08:04:55;7.27;;;4.30;;
45368;SDS011;51342;55.250;37.668;2023-03-29T08:07:45;5.70;;;3.73;;
45368;SDS011;51342;55.250;37.668;2023-03-29T08:10:41;6.50;;;4.13;;
45368;SDS011;51342;55.250;37.668;2023-03-29T08:13:21;5.47;;;3.63;;
45368;SDS011;51342;55.250;37.668;2023-03-29T08:16:13;6.33;;;3.67;;
45368;SDS011;51342;55.250;37.668;2023-03-29T08:18:51;4.70;;;3.50;;
45368;SDS011;51342;55.250;37.668;2023-03-29T08:21:25;5.73;;;3.60;;
45368;SDS011;51342;55.250;37.668;2023-03-29T08:23:57;4.63;;;3.40;;
45368;SDS011;51342;55.250;37.668;2023-03-29T08:26:41;4.40;;;3.63;;
45368;SDS011;51342;55.250;37.668;2023-03-29T08:29:13;5.07;;;3.33;;
45368;SDS011;51342;55.250;37.668;2023-03-29T08:31:45;5.03;;;3.70;;
45368;SDS011;51342;55.250;37.668;2023-03-29T08:34:17;6.07;;;4.07;;
45368;SDS011;51342;55.250;37.668;2023-03-29T08:36:48;6.53;;;4.60;;
45368;SDS011;51342;55.250;37.668;2023-03-29T08:39:37;6.63;;;4.20;;
45368;SDS011;51342;55.250;37.668;2023-03-29T08:45:24;5.53;;;3.93;;
45368;SDS011;51342;55.250;37.668;2023-03-29T08:51:04;6.83;;;4.13;;
45368;SDS011;51342;55.250;37.668;2023-03-29T08:53:51;5.60;;;4.13;;
45368;SDS011;51342;55.250;37.668;2023-03-29T08:56:31;7.03;;;4.40;;
45368;SDS011;51342;55.250;37.668;2023-03-29T08:59:13;6.28;;;4.43;;
45368;SDS011;51342;55.250;37.668;2023-03-29T09:01:54;6.27;;;4.03;;
45368;SDS011;51342;55.250;37.668;2023-03-29T09:04:32;6.33;;;4.80;;
45368;SDS011;51342;55.250;37.668;2023-03-29T09:07:13;7.20;;;4.50;;
45368;SDS011;51342;55.250;37.668;2023-03-29T09:09:49;6.87;;;4.50;;
45368;SDS011;51342;55.250;37.668;2023-03-29T09:15:48;6.63;;;4.47;;
45368;SDS011;51342;55.250;37.668;2023-03-29T09:18:44;8.00;;;5.00;;
45368;SDS011;51342;55.250;37.668;2023-03-29T09:21:29;6.90;;;4.60;;
45368;SDS011;51342;55.250;37.668;2023-03-29T09:27:19;7.75;;;5.18;;
45368;SDS011;51342;55.250;37.668;2023-03-29T09:30:27;8.00;;;5.33;;
45368;SDS011;51342;55.250;37.668;2023-03-29T09:35:53;8.40;;;5.23;;
45368;SDS011;51342;55.250;37.668;2023-03-29T09:38:48;7.53;;;5.03;;
45368;SDS011;51342;55.250;37.668;2023-03-29T09:41:29;7.70;;;5.07;;
45368;SDS011;51342;55.250;37.668;2023-03-29T09:44:11;8.67;;;5.63;;
45368;SDS011;51342;55.250;37.668;2023-03-29T09:46:50;8.85;;;5.45;;
45368;SDS011;51342;55.250;37.668;2023-03-29T09:49:33;8.50;;;5.57;;
45368;SDS011;51342;55.250;37.668;2023-03-29T09:52:11;7.40;;;4.90;;
45368;SDS011;51342;55.250;37.668;2023-03-29T09:54:48;8.17;;;5.40;;
45368;SDS011;51342;55.250;37.668;2023-03-29T09:57:39;7.63;;;5.60;;
45368;SDS011;51342;55.250;37.668;2023-03-29T10:00:11;8.57;;;5.77;;
45368;SDS011;51342;55.250;37.668;2023-03-29T10:02:51;9.07;;;6.23;;
45368;SDS011;51342;55.250;37.668;2023-03-29T10:05:29;8.17;;;6.07;;
45368;SDS011;51342;55.250;37.668;2023-03-29T10:08:14;8.37;;;6.00;;
45368;SDS011;51342;55.250;37.668;2023-03-29T10:10:53;9.13;;;5.90;;
45368;SDS011;51342;55.250;37.668;2023-03-29T10:13:28;8.20;;;5.47;;
45368;SDS011;51342;55.250;37.668;2023-03-29T10:16:03;8.60;;;5.40;;
45368;SDS011;51342;55.250;37.668;2023-03-29T10:18:47;8.53;;;6.10;;
45368;SDS011;51342;55.250;37.668;2023-03-29T10:21:20;6.73;;;5.40;;
45368;SDS011;51342;55.250;37.668;2023-03-29T10:23:56;9.23;;;5.93;;
45368;SDS011;51342;55.250;37.668;2023-03-29T10:26:32;9.60;;;6.03;;
45368;SDS011;51342;55.250;37.668;2023-03-29T10:29:09;9.70;;;6.07;;
45368;SDS011;51342;55.250;37.668;2023-03-29T10:31:43;9.10;;;5.83;;
45368;SDS011;51342;55.250;37.668;2023-03-29T10:34:14;7.23;;;5.30;;
45368;SDS011;51342;55.250;37.668;2023-03-29T10:36:56;8.17;;;5.53;;
45368;SDS011;51342;55.250;37.668;2023-03-29T10:39:31;8.53;;;5.30;;
45368;SDS011;51342;55.250;37.668;2023-03-29T10:42:04;8.13;;;5.77;;
45368;SDS011;51342;55.250;37.668;2023-03-29T10:44:38;7.87;;;5.23;;
45368;SDS011;51342;55.250;37.668;2023-03-29T10:47:17;6.97;;;4.87;;
45368;SDS011;51342;55.250;37.668;2023-03-29T10:49:51;7.33;;;4.73;;
45368;SDS011;51342;55.250;37.668;2023-03-29T10:52:24;7.53;;;4.60;;
45368;SDS011;51342;55.250;37.668;2023-03-29T10:54:56;6.93;;;4.20;;
45368;SDS011;51342;55.250;37.668;2023-03-29T11:11:37;6.67;;;4.23;;
45368;SDS011;51342;55.250;37.668;2023-03-29T11:20:02;6.43;;;3.90;;
45368;SDS011;51342;55.250;37.668;2023-03-29T11:25:33;5.67;;;4.03;;
45368;SDS011;51342;55.250;37.668;2023-03-29T11:34:14;13.03;;;7.30;;
45368;SDS011;51342;55.250;37.668;2023-03-29T11:36:59;10.20;;;5.63;;
45368;SDS011;51342;55.250;37.668;2023-03-29T11:39:48;8.70;;;5.10;;
45368;SDS011;51342;55.250;37.668;2023-03-29T11:42:37;6.47;;;4.27;;
45368;SDS011;51342;55.250;37.668;2023-03-29T11:45:33;4.88;;;3.85;;
45368;SDS011;51342;55.250;37.668;2023-03-29T11:48:12;5.63;;;3.00;;
45368;SDS011;51342;55.250;37.668;2023-03-29T11:50:54;4.57;;;3.07;;
45368;SDS011;51342;55.250;37.668;2023-03-29T11:56:15;5.40;;;3.17;;
45368;SDS011;51342;55.250;37.668;2023-03-29T11:58:56;5.73;;;4.00;;
45368;SDS011;51342;55.250;37.668;2023-03-29T12:01:34;5.90;;;3.47;;
45368;SDS011;51342;55.250;37.668;2023-03-29T12:04:12;7.22;;;5.15;;
45368;SDS011;51342;55.250;37.668;2023-03-29T12:07:08;4.93;;;2.93;;
45368;SDS011;51342;55.250;37.668;2023-03-29T12:09:52;4.73;;;3.30;;
45368;SDS011;51342;55.250;37.668;2023-03-29T12:15:17;4.82;;;3.50;;
45368;SDS011;51342;55.250;37.668;2023-03-29T12:20:57;3.77;;;2.93;;
45368;SDS011;51342;55.250;37.668;2023-03-29T12:23:33;5.87;;;3.50;;
45368;SDS011;51342;55.250;37.668;2023-03-29T12:40:44;4.87;;;2.70;;
45368;SDS011;51342;55.250;37.668;2023-03-29T12:43:40;4.60;;;2.70;;
45368;SDS011;51342;55.250;37.668;2023-03-29T12:46:23;3.57;;;2.67;;
45368;SDS011;51342;55.250;37.668;2023-03-29T12:48:57;4.33;;;2.40;;
45368;SDS011;51342;55.250;37.668;2023-03-29T12:51:38;3.83;;;2.70;;
45368;SDS011;51342;55.250;37.668;2023-03-29T12:54:13;3.40;;;2.30;;
45368;SDS011;51342;55.250;37.668;2023-03-29T13:04:49;4.20;;;2.70;;
45368;SDS011;51342;55.250;37.668;2023-03-29T13:10:00;3.90;;;2.80;;
45368;SDS011;51342;55.250;37.668;2023-03-29T13:15:06;5.43;;;3.20;;
45368;SDS011;51342;55.250;37.668;2023-03-29T13:21:05;4.73;;;3.33;;
45368;SDS011;51342;55.250;37.668;2023-03-29T13:30:18;4.90;;;3.53;;
45368;SDS011;51342;55.250;37.668;2023-03-29T13:33:05;4.17;;;3.27;;
45368;SDS011;51342;55.250;37.668;2023-03-29T13:38:45;6.30;;;3.57;;
45368;SDS011;51342;55.250;37.668;2023-03-29T13:44:01;5.23;;;3.57;;
45368;SDS011;51342;55.250;37.668;2023-03-29T13:46:35;6.43;;;3.57;;
45368;SDS011;51342;55.250;37.668;2023-03-29T13:49:18;4.57;;;3.53;;
45368;SDS011;51342;55.250;37.668;2023-03-29T13:54:29;6.17;;;3.57;;
45368;SDS011;51342;55.250;37.668;2023-03-29T14:02:39;4.83;;;3.77;;
45368;SDS011;51342;55.250;37.668;2023-03-29T14:05:18;7.00;;;4.07;;
45368;SDS011;51342;55.250;37.668;2023-03-29T14:07:53;6.13;;;3.93;;
45368;SDS011;51342;55.250;37.668;2023-03-29T14:10:26;7.43;;;4.07;;
45368;SDS011;51342;55.250;37.668;2023-03-29T14:13:04;4.97;;;4.23;;
45368;SDS011;51342;55.250;37.668;2023-03-29T14:15:47;5.73;;;4.30;;
45368;SDS011;51342;55.250;37.668;2023-03-29T14:18:22;5.43;;;4.10;;
45368;SDS011;51342;55.250;37.668;2023-03-29T14:20:55;6.90;;;3.93;;
45368;SDS011;51342;55.250;37.668;2023-03-29T14:23:29;5.00;;;4.00;;
45368;SDS011;51342;55.250;37.668;2023-03-29T14:26:06;7.87;;;4.70;;
45368;SDS011;51342;55.250;37.668;2023-03-29T14:28:42;6.50;;;4.30;;
45368;SDS011;51342;55.250;37.668;2023-03-29T14:31:31;8.43;;;3.90;;
45368;SDS011;51342;55.250;37.668;2023-03-29T14:36:43;7.67;;;5.03;;
45368;SDS011;51342;55.250;37.668;2023-03-29T14:39:19;7.83;;;4.77;;
45368;SDS011;51342;55.250;37.668;2023-03-29T14:41:56;6.95;;;5.20;;
45368;SDS011;51342;55.250;37.668;2023-03-29T14:44:31;7.73;;;5.20;;
45368;SDS011;51342;55.250;37.668;2023-03-29T14:47:04;7.63;;;5.23;;
45368;SDS011;51342;55.250;37.668;2023-03-29T14:49:36;7.07;;;5.07;;
45368;SDS011;51342;55.250;37.668;2023-03-29T14:52:07;8.53;;;5.67;;
45368;SDS011;51342;55.250;37.668;2023-03-29T14:54:42;8.77;;;5.57;;
45368;SDS011;51342;55.250;37.668;2023-03-29T14:57:18;9.10;;;6.25;;
45368;SDS011;51342;55.250;37.668;2023-03-29T14:59:57;8.93;;;6.30;;
45368;SDS011;51342;55.250;37.668;2023-03-29T15:02:31;8.35;;;5.78;;
45368;SDS011;51342;55.250;37.668;2023-03-29T15:05:04;7.57;;;5.90;;
45368;SDS011;51342;55.250;37.668;2023-03-29T15:07:37;7.33;;;5.80;;
45368;SDS011;51342;55.250;37.668;2023-03-29T15:10:14;7.80;;;5.93;;
45368;SDS011;51342;55.250;37.668;2023-03-29T15:12:49;7.87;;;6.00;;
45368;SDS011;51342;55.250;37.668;2023-03-29T15:15:22;9.37;;;6.37;;
45368;SDS011;51342;55.250;37.668;2023-03-29T15:17:54;7.40;;;6.47;;
45368;SDS011;51342;55.250;37.668;2023-03-29T15:20:31;8.23;;;6.23;;
45368;SDS011;51342;55.250;37.668;2023-03-29T15:23:17;8.80;;;6.37;;
45368;SDS011;51342;55.250;37.668;2023-03-29T15:28:44;9.27;;;6.80;;
45368;SDS011;51342;55.250;37.668;2023-03-29T15:31:30;8.63;;;6.80;;
45368;SDS011;51342;55.250;37.668;2023-03-29T15:34:05;10.70;;;6.67;;
45368;SDS011;51342;55.250;37.668;2023-03-29T15:36:44;9.57;;;6.50;;
45368;SDS011;51342;55.250;37.668;2023-03-29T15:39:16;10.77;;;7.13;;
45368;SDS011;51342;55.250;37.668;2023-03-29T15:41:50;9.97;;;7.03;;
45368;SDS011;51342;55.250;37.668;2023-03-29T15:44:27;11.17;;;7.40;;
45368;SDS011;51342;55.250;37.668;2023-03-29T15:47:02;12.07;;;7.50;;
45368;SDS011;51342;55.250;37.668;2023-03-29T15:49:33;9.53;;;7.33;;
45368;SDS011;51342;55.250;37.668;2023-03-29T15:52:04;10.47;;;8.10;;
45368;SDS011;51342;55.250;37.668;2023-03-29T15:54:36;11.97;;;9.00;;
45368;SDS011;51342;55.250;37.668;2023-03-29T15:57:10;11.17;;;8.83;;
45368;SDS011;51342;55.250;37.668;2023-03-29T15:59:44;13.20;;;8.52;;
45368;SDS011;51342;55.250;37.668;2023-03-29T16:02:16;11.00;;;8.90;;
45368;SDS011;51342;55.250;37.668;2023-03-29T16:04:51;12.97;;;9.50;;
45368;SDS011;51342;55.250;37.668;2023-03-29T16:07:23;11.83;;;8.90;;
45368;SDS011;51342;55.250;37.668;2023-03-29T16:09:54;11.97;;;9.70;;
45368;SDS011;51342;55.250;37.668;2023-03-29T16:12:26;11.83;;;9.57;;
45368;SDS011;51342;55.250;37.668;2023-03-29T16:14:57;14.60;;;10.17;;
45368;SDS011;51342;55.250;37.668;2023-03-29T16:17:29;13.37;;;10.17;;
45368;SDS011;51342;55.250;37.668;2023-03-29T16:20:00;13.77;;;10.40;;
45368;SDS011;51342;55.250;37.668;2023-03-29T16:22:31;15.40;;;10.07;;
45368;SDS011;51342;55.250;37.668;2023-03-29T16:25:03;14.97;;;10.60;;
45368;SDS011;51342;55.250;37.668;2023-03-29T16:27:41;15.27;;;11.47;;
45368;SDS011;51342;55.250;37.668;2023-03-29T16:30:13;18.33;;;11.70;;
45368;SDS011;51342;55.250;37.668;2023-03-29T16:32:45;16.07;;;11.27;;
45368;SDS011;51342;55.250;37.668;2023-03-29T16:35:21;17.43;;;12.57;;
45368;SDS011;51342;55.250;37.668;2023-03-29T16:37:56;16.70;;;11.97;;
45368;SDS011;51342;55.250;37.668;2023-03-29T16:40:28;18.03;;;12.63;;
45368;SDS011;51342;55.250;37.668;2023-03-29T16:42:59;17.87;;;12.90;;
45368;SDS011;51342;55.250;37.668;2023-03-29T16:45:32;16.13;;;12.13;;
45368;SDS011;51342;55.250;37.668;2023-03-29T16:48:08;18.83;;;12.80;;
45368;SDS011;51342;55.250;37.668;2023-03-29T16:50:43;20.90;;;13.10;;
45368;SDS011;51342;55.250;37.668;2023-03-29T16:53:19;18.50;;;13.63;;
45368;SDS011;51342;55.250;37.668;2023-03-29T16:56:12;18.43;;;13.37;;
45368;SDS011;51342;55.250;37.668;2023-03-29T16:58:44;18.60;;;13.33;;
45368;SDS011;51342;55.250;37.668;2023-03-29T17:01:18;19.80;;;14.67;;
45368;SDS011;51342;55.250;37.668;2023-03-29T17:03:52;19.20;;;13.93;;
45368;SDS011;51342;55.250;37.668;2023-03-29T17:06:23;22.23;;;14.20;;
45368;SDS011;51342;55.250;37.668;2023-03-29T17:08:56;22.53;;;14.13;;
45368;SDS011;51342;55.250;37.668;2023-03-29T17:11:28;22.67;;;14.23;;
45368;SDS011;51342;55.250;37.668;2023-03-29T17:14:00;18.30;;;13.30;;
45368;SDS011;51342;55.250;37.668;2023-03-29T17:16:32;21.23;;;14.27;;
45368;SDS011;51342;55.250;37.668;2023-03-29T17:19:03;19.50;;;14.13;;
45368;SDS011;51342;55.250;37.668;2023-03-29T17:21:34;21.60;;;15.13;;
45368;SDS011;51342;55.250;37.668;2023-03-29T17:24:06;20.03;;;14.27;;
45368;SDS011;51342;55.250;37.668;2023-03-29T17:26:37;23.00;;;15.23;;
45368;SDS011;51342;55.250;37.668;2023-03-29T17:29:09;21.03;;;14.50;;
45368;SDS011;51342;55.250;37.668;2023-03-29T17:31:41;25.27;;;15.70;;
45368;SDS011;51342;55.250;37.668;2023-03-29T17:34:17;23.43;;;16.17;;
45368;SDS011;51342;55.250;37.668;2023-03-29T17:36:49;21.30;;;14.90;;
45368;SDS011;51342;55.250;37.668;2023-03-29T17:39:23;25.23;;;15.60;;
45368;SDS011;51342;55.250;37.668;2023-03-29T17:41:56;23.23;;;15.40;;